createdAt,value
2018-08-18T00:00:41.682Z,84.54
2018-08-18T00:03:11.480Z,84.82
2018-08-18T00:05:41.438Z,85.06
2018-08-18T00:08:11.294Z,85.03
2018-08-18T00:10:41.158Z,85.22
2018-08-18T00:13:10.986Z,85.45
2018-08-18T00:15:41.414Z,85.51
2018-08-18T00:18:11.682Z,85.42
2018-08-18T00:20:41.466Z,85.26
2018-08-18T00:23:12.238Z,85.20
2018-08-18T00:25:42.700Z,85.02
2018-08-18T00:28:24.178Z,84.85
2018-08-18T00:30:55.356Z,83.83
2018-08-18T00:33:26.265Z,84.42
2018-08-18T00:35:57.688Z,83.16
2018-08-18T00:38:27.858Z,83.12
2018-08-18T00:40:59.662Z,83.46
2018-08-18T00:43:30.232Z,84.19
2018-08-18T00:46:00.239Z,85.30
2018-08-18T00:48:31.288Z,85.18
2018-08-18T00:51:01.326Z,85.14
2018-08-18T00:53:32.001Z,85.31
2018-08-18T00:56:03.414Z,84.71
2018-08-18T00:58:34.004Z,84.80
2018-08-18T01:01:06.266Z,84.83
2018-08-18T01:03:44.437Z,84.20
2018-08-18T01:06:21.108Z,84.08
2018-08-18T01:08:55.917Z,84.63
2018-08-18T01:11:26.534Z,85.09
2018-08-18T01:13:58.859Z,84.80
2018-08-18T01:16:28.874Z,85.38
2018-08-18T01:19:00.368Z,84.79
2018-08-18T01:21:31.158Z,84.89
2018-08-18T01:24:02.480Z,85.19
2018-08-18T01:30:09.494Z,84.93
2018-08-18T01:32:39.948Z,84.30
2018-08-18T01:35:11.352Z,84.99
2018-08-18T01:37:41.837Z,84.72
2018-08-18T01:40:13.036Z,84.44
2018-08-18T01:42:43.312Z,85.12
2018-08-18T01:45:13.184Z,85.01
2018-08-18T01:47:43.098Z,85.60
2018-08-18T01:50:19.020Z,86.96
2018-08-18T01:52:49.078Z,87.34
2018-08-18T01:55:18.968Z,88.92
2018-08-18T01:57:48.820Z,89.37
2018-08-18T02:00:27.222Z,89.78
2018-08-18T02:02:57.237Z,90.95
2018-08-18T02:09:03.155Z,91.09
2018-08-18T02:11:33.057Z,90.68
2018-08-18T02:14:03.665Z,90.98
2018-08-18T02:16:33.507Z,90.49
2018-08-18T02:19:03.584Z,90.57
2018-08-18T02:21:36.921Z,90.52
2018-08-18T02:24:07.090Z,90.68
2018-08-18T02:26:37.297Z,90.73
2018-08-18T02:29:07.334Z,90.75
2018-08-18T02:31:37.234Z,91.27
2018-08-18T02:34:07.189Z,91.46
2018-08-18T02:36:37.142Z,91.17
2018-08-18T02:39:09.109Z,91.28
2018-08-18T02:41:43.673Z,91.40
2018-08-18T02:44:13.571Z,90.78
2018-08-18T02:46:43.697Z,90.49
2018-08-18T02:49:13.971Z,90.36
2018-08-18T02:51:43.961Z,89.50
2018-08-18T02:54:13.827Z,88.45
2018-08-18T02:56:44.299Z,88.17
2018-08-18T02:59:14.182Z,88.51
2018-08-18T03:01:44.891Z,88.88
2018-08-18T03:04:15.679Z,88.35
2018-08-18T03:06:45.567Z,88.76
2018-08-18T03:09:15.438Z,88.75
2018-08-18T03:11:45.967Z,88.14
2018-08-18T03:14:16.073Z,88.18
2018-08-18T03:16:46.004Z,87.78
2018-08-18T03:19:15.883Z,88.11
2018-08-18T03:21:45.762Z,86.93
2018-08-18T03:24:25.085Z,86.56
2018-08-18T03:26:57.318Z,86.42
2018-08-18T03:29:28.451Z,86.44
2018-08-18T03:31:58.569Z,87.04
2018-08-18T03:34:28.937Z,86.09
2018-08-18T03:36:59.525Z,86.31
2018-08-18T03:39:33.444Z,86.14
2018-08-18T03:42:04.668Z,86.40
2018-08-18T03:44:41.305Z,86.77
2018-08-18T03:47:11.829Z,86.30
2018-08-18T03:49:42.236Z,86.25
2018-08-18T03:59:24.364Z,85.79
2018-08-18T04:02:00.907Z,85.27
2018-08-18T04:04:33.407Z,85.38
2018-08-18T04:07:05.126Z,86.21
2018-08-18T04:09:36.807Z,86.27
2018-08-18T04:12:09.096Z,86.44
2018-08-18T04:14:40.571Z,85.20
2018-08-18T04:17:43.379Z,85.79
2018-08-18T04:20:13.475Z,85.09
2018-08-18T04:22:44.057Z,85.32
2018-08-18T04:25:14.555Z,85.41
2018-08-18T04:27:47.915Z,85.27
2018-08-18T04:30:21.257Z,85.38
2018-08-18T04:33:01.889Z,84.78
2018-08-18T04:35:33.134Z,85.09
2018-08-18T04:38:04.599Z,85.19
2018-08-18T04:40:37.507Z,85.12
2018-08-18T04:43:07.859Z,85.61
2018-08-18T04:45:38.337Z,85.72
2018-08-18T04:48:09.080Z,85.84
2018-08-18T04:50:39.138Z,85.29
2018-08-18T04:53:09.758Z,85.57
2018-08-18T04:55:40.178Z,85.75
2018-08-18T04:58:10.998Z,85.24
2018-08-18T05:00:41.482Z,85.66
2018-08-18T05:03:12.470Z,85.44
2018-08-18T05:05:42.864Z,85.35
2018-08-18T05:08:14.268Z,84.81
2018-08-18T05:10:44.720Z,84.83
2018-08-18T05:13:15.114Z,84.19
2018-08-18T05:15:45.518Z,85.09
2018-08-18T05:18:15.930Z,84.53
2018-08-18T05:20:46.777Z,85.09
2018-08-18T05:23:25.230Z,84.79
2018-08-18T05:25:55.982Z,85.02
2018-08-18T05:28:26.352Z,84.35
2018-08-18T05:30:56.914Z,83.96
2018-08-18T05:33:26.786Z,84.55
2018-08-18T05:35:57.660Z,84.61
2018-08-18T05:38:28.030Z,83.91
2018-08-18T05:40:58.835Z,84.10
2018-08-18T05:43:29.318Z,83.98
2018-08-18T05:46:00.384Z,83.40
2018-08-18T05:48:31.276Z,83.00
2018-08-18T05:51:01.770Z,82.58
2018-08-18T05:53:33.876Z,82.43
2018-08-18T05:56:05.060Z,82.81
2018-08-18T05:59:06.472Z,82.16
2018-08-18T06:01:39.042Z,81.68
2018-08-18T06:04:16.892Z,81.84
2018-08-18T06:06:48.442Z,81.17
2018-08-18T06:09:20.222Z,80.92
2018-08-18T06:11:50.832Z,81.75
2018-08-18T06:14:21.302Z,81.69
2018-08-18T06:16:52.351Z,81.64
2018-08-18T06:19:22.756Z,81.63
2018-08-18T06:21:53.723Z,81.50
2018-08-18T06:24:24.174Z,81.17
2018-08-18T06:26:54.668Z,81.57
2018-08-18T06:29:25.070Z,80.36
2018-08-18T06:32:03.030Z,79.98
2018-08-18T06:34:34.703Z,79.85
2018-08-18T06:37:05.672Z,79.66
2018-08-18T06:40:00.848Z,79.26
2018-08-18T06:42:45.786Z,79.09
2018-08-18T06:45:50.390Z,78.66
2018-08-18T06:48:23.245Z,77.90
2018-08-18T06:50:53.727Z,77.60
2018-08-18T06:53:24.194Z,78.28
2018-08-18T06:55:54.974Z,77.50
2018-08-18T06:58:25.578Z,76.65
2018-08-18T07:00:56.646Z,76.49
2018-08-18T07:03:39.192Z,77.15
2018-08-18T07:06:11.866Z,77.49
2018-08-18T07:08:47.345Z,76.84
2018-08-18T07:11:17.827Z,76.99
2018-08-18T07:13:49.600Z,77.39
2018-08-18T07:16:20.052Z,77.87
2018-08-18T07:18:50.449Z,77.56
2018-08-18T07:21:22.022Z,77.58
2018-08-18T07:23:52.431Z,78.71
2018-08-18T07:26:23.078Z,78.82
2018-08-18T07:28:53.629Z,78.26
2018-08-18T07:31:24.339Z,79.09
2018-08-18T07:33:55.084Z,78.96
2018-08-18T07:36:25.465Z,78.20
2018-08-18T07:38:55.904Z,78.80
2018-08-18T07:41:26.439Z,79.25
2018-08-18T07:43:57.383Z,77.88
2018-08-18T07:46:27.743Z,77.50
2018-08-18T07:48:58.328Z,76.11
2018-08-18T07:51:28.753Z,77.30
2018-08-18T07:53:59.155Z,76.95
2018-08-18T07:56:29.525Z,75.35
2018-08-18T07:59:00.009Z,75.74
2018-08-18T08:01:30.408Z,76.24
2018-08-18T08:04:00.881Z,75.69
2018-08-18T08:06:31.315Z,74.28
2018-08-18T08:09:01.921Z,73.77
2018-08-18T08:11:32.378Z,72.78
2018-08-18T08:14:02.811Z,72.26
2018-08-18T08:16:33.217Z,71.12
2018-08-18T08:19:04.020Z,71.04
2018-08-18T08:21:34.440Z,70.13
2018-08-18T08:24:05.135Z,68.87
2018-08-18T08:26:36.611Z,68.54
2018-08-18T08:29:07.080Z,69.32
2018-08-18T08:31:37.474Z,67.54
2018-08-18T08:34:08.267Z,66.49
2018-08-18T08:36:38.761Z,65.53
2018-08-18T08:39:09.674Z,65.63
2018-08-18T08:41:40.264Z,64.87
2018-08-18T08:44:10.703Z,64.14
2018-08-18T08:46:45.712Z,63.83
2018-08-18T08:49:16.083Z,63.90
2018-08-18T08:51:46.847Z,61.51
2018-08-18T08:54:17.535Z,59.56
2018-08-18T08:56:47.911Z,58.88
2018-08-18T08:59:18.551Z,59.08
2018-08-18T09:01:49.387Z,57.68
2018-08-18T09:04:19.799Z,57.37
2018-08-18T09:06:57.141Z,56.61
2018-08-18T09:09:27.715Z,56.95
2018-08-18T09:11:58.179Z,58.55
2018-08-18T09:14:28.757Z,58.57
2018-08-18T09:16:59.186Z,61.70
2018-08-18T09:19:29.767Z,60.58
2018-08-18T09:22:04.137Z,61.98
2018-08-18T09:24:34.506Z,62.66
2018-08-18T09:27:06.269Z,61.74
2018-08-18T09:29:40.492Z,60.90
2018-08-18T09:32:11.036Z,62.88
2018-08-18T09:34:46.761Z,63.55
2018-08-18T09:37:17.907Z,62.34
2018-08-18T09:39:48.406Z,62.36
2018-08-18T09:42:20.364Z,62.47
2018-08-18T09:44:53.601Z,58.07
2018-08-18T09:47:24.050Z,59.68
2018-08-18T09:49:54.483Z,58.89
2018-08-18T09:52:24.875Z,58.86
2018-08-18T09:54:55.249Z,58.81
2018-08-18T09:57:25.934Z,58.33
2018-08-18T09:59:56.356Z,58.24
2018-08-18T10:02:26.942Z,58.03
2018-08-18T10:04:57.282Z,56.28
2018-08-18T10:07:27.729Z,56.02
2018-08-18T10:09:58.180Z,55.16
2018-08-18T10:12:28.570Z,54.81
2018-08-18T10:14:58.976Z,54.15
2018-08-18T10:17:29.336Z,54.04
2018-08-18T10:20:01.578Z,51.91
2018-08-18T10:22:32.068Z,53.51
2018-08-18T10:25:02.818Z,51.69
2018-08-18T10:27:33.266Z,50.70
2018-08-18T10:30:03.710Z,52.81
2018-08-18T10:32:39.632Z,52.50
2018-08-18T10:35:13.624Z,53.18
2018-08-18T10:37:44.282Z,55.10
2018-08-18T10:40:14.684Z,54.35
2018-08-18T10:42:45.040Z,53.12
2018-08-18T10:45:15.547Z,52.94
2018-08-18T10:47:46.214Z,52.22
2018-08-18T10:51:37.161Z,51.51
2018-08-18T10:54:07.716Z,49.38
2018-08-18T10:56:38.278Z,48.76
2018-08-18T10:59:18.251Z,49.76
2018-08-18T11:02:05.762Z,48.55
2018-08-18T11:04:37.292Z,47.23
2018-08-18T11:07:08.080Z,45.66
2018-08-18T11:09:38.462Z,48.64
2018-08-18T11:12:08.866Z,50.41
2018-08-18T11:14:39.890Z,50.60
2018-08-18T11:17:10.492Z,51.51
2018-08-18T11:19:41.598Z,50.74
2018-08-18T11:23:15.786Z,50.33
2018-08-18T11:25:54.684Z,49.69
2018-08-18T11:28:25.139Z,49.07
2018-08-18T11:30:56.021Z,50.04
2018-08-18T11:33:40.174Z,49.81
2018-08-18T11:36:11.808Z,52.39
2018-08-18T11:38:42.226Z,51.29
2018-08-18T11:41:12.623Z,50.76
2018-08-18T11:43:51.113Z,49.26
2018-08-18T11:46:21.446Z,49.02
2018-08-18T11:48:51.932Z,49.34
2018-08-18T11:51:23.859Z,47.79
2018-08-18T11:54:02.600Z,48.64
2018-08-18T11:56:38.879Z,49.81
2018-08-18T11:59:17.069Z,50.50
2018-08-18T12:01:50.253Z,50.02
2018-08-18T12:04:22.515Z,50.86
2018-08-18T12:06:59.064Z,49.37
2018-08-18T12:09:29.538Z,47.72
2018-08-18T12:11:59.991Z,47.65
2018-08-18T12:14:30.414Z,48.91
2018-08-18T12:17:00.809Z,47.70
2018-08-18T12:19:31.256Z,50.72
2018-08-18T12:22:01.634Z,50.22
2018-08-18T12:24:32.116Z,49.70
2018-08-18T12:27:12.683Z,47.08
2018-08-18T12:29:43.337Z,49.21
2018-08-18T12:32:18.999Z,49.75
2018-08-18T12:34:49.402Z,51.56
2018-08-18T12:37:21.480Z,51.42
2018-08-18T12:39:51.988Z,51.09
2018-08-18T12:42:28.974Z,49.68
2018-08-18T12:44:59.733Z,50.94
2018-08-18T12:47:30.216Z,49.50
2018-08-18T12:50:00.829Z,48.82
2018-08-18T12:52:46.614Z,49.48
2018-08-18T12:55:17.340Z,47.08
2018-08-18T12:57:49.987Z,46.98
2018-08-18T13:00:20.900Z,50.00
2018-08-18T13:02:54.656Z,49.81
2018-08-18T13:05:28.448Z,49.67
2018-08-18T13:07:58.876Z,49.34
2018-08-18T13:10:30.120Z,50.71
2018-08-18T13:13:00.474Z,49.94
2018-08-18T13:15:30.959Z,49.45
2018-08-18T13:18:01.662Z,49.12
2018-08-18T13:22:01.534Z,49.32
2018-08-18T13:24:32.866Z,47.16
2018-08-18T13:27:03.658Z,45.95
2018-08-18T13:29:34.397Z,46.31
2018-08-18T13:32:05.206Z,46.82
2018-08-18T13:34:35.614Z,48.02
2018-08-18T13:37:06.314Z,50.19
2018-08-18T13:39:36.708Z,50.38
2018-08-18T13:42:24.206Z,47.72
2018-08-18T13:44:54.980Z,46.55
2018-08-18T13:47:25.777Z,45.56
2018-08-18T13:50:01.299Z,45.07
2018-08-18T13:52:37.872Z,43.89
2018-08-18T13:55:08.390Z,44.00
2018-08-18T13:57:39.001Z,43.71
2018-08-18T14:00:16.455Z,43.56
2018-08-18T14:02:47.138Z,43.92
2018-08-18T14:05:36.830Z,43.15
2018-08-18T14:08:07.501Z,43.10
2018-08-18T14:10:37.720Z,44.00
2018-08-18T14:13:08.372Z,42.26
2018-08-18T14:15:39.946Z,42.86
2018-08-18T14:18:12.379Z,42.52
2018-08-18T14:21:15.721Z,42.28
2018-08-18T14:23:46.937Z,41.41
2018-08-18T14:26:17.936Z,42.24
2018-08-18T14:28:48.094Z,42.99
2018-08-18T14:31:19.257Z,43.68
2018-08-18T14:33:49.357Z,43.65
2018-08-18T14:36:19.931Z,43.64
2018-08-18T14:38:50.073Z,42.06
2018-08-18T14:41:40.786Z,42.09
2018-08-18T14:44:10.915Z,41.28
2018-08-18T14:46:41.194Z,42.10
2018-08-18T14:49:11.664Z,43.13
2018-08-18T14:51:42.401Z,45.73
2018-08-18T14:54:12.996Z,44.90
2018-08-18T14:56:43.775Z,43.27
2018-08-18T14:59:14.690Z,46.11
2018-08-18T15:01:45.187Z,44.07
2018-08-18T15:04:15.758Z,43.46
2018-08-18T15:06:46.266Z,43.05
2018-08-18T15:09:35.308Z,43.53
2018-08-18T15:12:05.828Z,42.90
2018-08-18T15:14:36.196Z,42.58
2018-08-18T15:17:06.715Z,42.28
2018-08-18T15:19:37.135Z,41.88
2018-08-18T15:22:09.214Z,42.23
2018-08-18T15:24:39.768Z,41.26
2018-08-18T15:27:10.237Z,40.83
2018-08-18T15:29:40.877Z,39.77
2018-08-18T15:32:11.010Z,40.60
2018-08-18T15:34:41.228Z,41.64
2018-08-18T15:37:11.384Z,40.39
2018-08-18T15:39:41.433Z,40.87
2018-08-18T15:42:11.770Z,40.39
2018-08-18T15:45:01.893Z,39.55
2018-08-18T15:47:31.994Z,41.12
2018-08-18T15:50:02.610Z,39.62
2018-08-18T15:52:33.808Z,40.92
2018-08-18T15:55:05.330Z,40.74
2018-08-18T15:57:35.431Z,41.22
2018-08-18T16:00:15.630Z,42.07
2018-08-18T16:02:45.722Z,40.86
2018-08-18T16:05:15.824Z,40.99
2018-08-18T16:07:45.856Z,40.47
2018-08-18T16:10:15.942Z,41.36
2018-08-18T16:12:46.280Z,42.15
2018-08-18T16:15:16.694Z,42.31
2018-08-18T16:17:47.156Z,42.54
2018-08-18T16:20:21.670Z,42.82
2018-08-18T16:22:54.854Z,44.46
2018-08-18T16:25:40.426Z,44.61
2018-08-18T16:28:11.136Z,43.84
2018-08-18T16:30:41.504Z,44.50
2018-08-18T16:33:16.439Z,44.57
2018-08-18T16:35:47.126Z,44.97
2018-08-18T16:38:17.827Z,43.60
2018-08-18T16:40:48.189Z,44.00
2018-08-18T16:43:18.287Z,44.74
2018-08-18T16:45:48.448Z,44.95
2018-08-18T16:48:18.639Z,43.82
2018-08-18T16:50:48.786Z,44.35
2018-08-18T16:53:18.847Z,44.70
2018-08-18T16:55:49.136Z,44.79
2018-08-18T16:58:19.242Z,44.93
2018-08-18T17:01:00.727Z,44.88
2018-08-18T17:03:32.994Z,46.75
2018-08-18T17:06:04.590Z,47.68
2018-08-18T17:08:35.097Z,48.62
2018-08-18T17:11:05.543Z,47.92
2018-08-18T17:13:36.729Z,48.07
2018-08-18T17:16:07.259Z,48.97
2018-08-18T17:18:37.659Z,50.15
2018-08-18T17:21:08.976Z,49.63
2018-08-18T17:23:39.409Z,50.24
2018-08-18T17:26:09.856Z,50.94
2018-08-18T17:28:40.318Z,49.89
2018-08-18T17:31:10.666Z,50.76
2018-08-18T17:33:41.123Z,51.03
2018-08-18T17:36:11.539Z,49.95
2018-08-18T17:38:41.994Z,51.93
2018-08-18T17:41:12.313Z,53.22
2018-08-18T17:43:42.711Z,53.41
2018-08-18T17:46:13.416Z,53.80
2018-08-18T17:48:56.151Z,53.23
2018-08-18T17:51:26.872Z,53.53
2018-08-18T17:53:57.360Z,54.75
2018-08-18T17:56:27.711Z,55.49
2018-08-18T17:58:58.154Z,56.16
2018-08-18T18:01:28.677Z,55.69
2018-08-18T18:03:59.226Z,54.64
2018-08-18T18:06:29.903Z,53.77
2018-08-18T18:09:00.816Z,53.19
2018-08-18T18:11:31.406Z,53.79
2018-08-18T18:14:01.914Z,52.89
2018-08-18T18:16:32.291Z,53.71
2018-08-18T18:19:02.688Z,54.33
2018-08-18T18:21:33.422Z,54.89
2018-08-18T18:24:03.900Z,55.68
2018-08-18T18:26:34.338Z,56.33
2018-08-18T18:29:05.094Z,57.44
2018-08-18T18:31:35.493Z,58.53
2018-08-18T18:34:05.952Z,59.51
2018-08-18T18:36:36.649Z,60.19
2018-08-18T18:39:07.252Z,59.77
2018-08-18T18:41:37.728Z,60.14
2018-08-18T18:44:08.061Z,61.90
2018-08-18T18:46:38.442Z,62.86
2018-08-18T18:49:31.894Z,62.31
2018-08-18T18:52:02.624Z,62.39
2018-08-18T18:54:33.152Z,62.20
2018-08-18T18:57:03.786Z,62.25
2018-08-18T18:59:34.727Z,61.79
2018-08-18T19:02:05.181Z,61.99
2018-08-18T19:04:35.572Z,62.26
2018-08-18T19:07:07.440Z,61.77
2018-08-18T19:09:37.858Z,62.17
2018-08-18T19:12:08.639Z,61.66
2018-08-18T19:14:38.915Z,61.98
2018-08-18T19:17:09.289Z,62.06
2018-08-18T19:19:39.659Z,62.23
2018-08-18T19:22:11.031Z,62.23
2018-08-18T19:24:41.351Z,62.69
2018-08-18T19:27:11.800Z,64.04
2018-08-18T19:29:42.422Z,64.22
2018-08-18T19:32:12.759Z,63.51
2018-08-18T19:34:43.177Z,63.41
2018-08-18T19:37:13.518Z,63.52
2018-08-18T19:39:43.906Z,63.69
2018-08-18T19:42:16.387Z,63.95
2018-08-18T19:44:48.148Z,64.11
2018-08-18T19:47:24.065Z,64.49
2018-08-18T19:49:54.921Z,64.25
2018-08-18T19:52:25.548Z,64.94
2018-08-18T19:54:55.969Z,64.54
2018-08-18T19:57:31.569Z,64.05
2018-08-18T20:00:13.449Z,64.79
2018-08-18T20:03:06.432Z,65.34
2018-08-18T20:05:36.932Z,65.47
2018-08-18T20:08:07.944Z,65.38
2018-08-18T20:10:47.759Z,65.56
2018-08-18T20:13:19.499Z,65.42
2018-08-18T20:15:51.529Z,64.78
2018-08-18T20:18:22.384Z,64.17
2018-08-18T20:20:53.073Z,64.57
2018-08-18T20:23:23.499Z,64.22
2018-08-18T20:25:53.831Z,63.81
2018-08-18T20:28:24.173Z,64.34
2018-08-18T20:30:54.576Z,63.97
2018-08-18T20:33:25.263Z,64.49
2018-08-18T20:35:55.663Z,65.74
2018-08-18T20:38:31.148Z,66.23
2018-08-18T20:41:01.511Z,66.20
2018-08-18T20:43:32.209Z,65.27
2018-08-18T20:46:02.617Z,65.44
2018-08-18T20:48:33.190Z,65.62
2018-08-18T20:51:03.798Z,65.39
2018-08-18T20:53:34.241Z,65.63
2018-08-18T20:56:05.098Z,66.07
2018-08-18T20:58:36.097Z,66.72
2018-08-18T21:01:06.482Z,66.91
2018-08-18T21:03:50.856Z,67.69
2018-08-18T21:06:21.558Z,67.99
2018-08-18T21:08:52.101Z,68.35
2018-08-18T21:11:22.489Z,68.52
2018-08-18T21:13:52.877Z,69.18
2018-08-18T21:16:24.121Z,69.11
2018-08-18T21:18:54.533Z,69.55
2018-08-18T21:21:34.199Z,69.30
2018-08-18T21:24:04.916Z,68.09
2018-08-18T21:26:35.335Z,68.27
2018-08-18T21:29:06.145Z,68.85
2018-08-18T21:31:37.869Z,68.50
2018-08-18T21:34:09.013Z,69.49
2018-08-18T21:36:40.521Z,69.72
2018-08-18T21:39:11.216Z,69.40
2018-08-18T21:41:43.007Z,70.17
2018-08-18T21:44:14.840Z,69.92
2018-08-18T21:46:45.457Z,69.97
2018-08-18T21:49:15.871Z,69.69
2018-08-18T21:51:46.257Z,70.40
2018-08-18T21:54:17.110Z,70.19
2018-08-18T21:56:47.793Z,69.93
2018-08-18T21:59:18.168Z,70.60
2018-08-18T22:01:48.560Z,70.52
2018-08-18T22:04:18.980Z,70.41
2018-08-18T22:06:49.308Z,71.19
2018-08-18T22:09:29.042Z,70.42
2018-08-18T22:12:00.672Z,70.65
2018-08-18T22:14:31.180Z,70.58
2018-08-18T22:17:01.984Z,70.25
2018-08-18T22:19:32.460Z,70.35
2018-08-18T22:22:02.976Z,70.82
2018-08-18T22:24:33.690Z,71.16
2018-08-18T22:27:04.648Z,71.48
2018-08-18T22:29:35.941Z,71.74
2018-08-18T22:32:10.394Z,71.27
2018-08-18T22:34:40.792Z,72.19
2018-08-18T22:37:14.207Z,71.40
2018-08-18T22:39:44.706Z,71.71
2018-08-18T22:42:15.469Z,71.94
2018-08-18T22:44:46.576Z,71.84
2018-08-18T22:47:16.978Z,72.42
2018-08-18T22:49:47.898Z,72.75
2018-08-18T22:52:18.328Z,72.08
2018-08-18T22:54:48.811Z,72.47
2018-08-18T22:57:19.157Z,72.42
2018-08-18T22:59:49.865Z,73.30
2018-08-18T23:02:20.858Z,72.86
2018-08-18T23:04:51.650Z,73.42
2018-08-18T23:07:22.066Z,73.25
2018-08-18T23:09:52.429Z,73.31
2018-08-18T23:12:22.745Z,74.20
2018-08-18T23:14:53.524Z,73.69
2018-08-18T23:17:24.019Z,74.42
2018-08-18T23:19:54.397Z,74.48
2018-08-18T23:22:46.763Z,74.42
2018-08-18T23:25:18.816Z,74.56
2018-08-18T23:27:49.292Z,74.41
2018-08-18T23:30:39.463Z,74.30
2018-08-18T23:33:11.190Z,74.60
2018-08-18T23:35:42.051Z,75.08
2018-08-18T23:38:12.491Z,74.98
2018-08-18T23:40:43.092Z,74.90
2018-08-18T23:43:13.537Z,74.70
2018-08-18T23:45:49.102Z,74.26
2018-08-18T23:48:19.940Z,74.78
2018-08-18T23:50:50.445Z,75.39
2018-08-18T23:53:23.546Z,75.53
2018-08-18T23:56:01.195Z,75.51
2018-08-18T23:58:31.676Z,76.21
